Jacksonville, FL (32219)

2:06 PM EST on December 26, 2014 (GMT -0500)
Jacksonville International | Change Station
CLOSE
Current Station
Airport
Location: Jacksonville,
Elevation: 30 ft
Nearby Weather Stations

Elev 30 ft 30.49 °N, 81.69 °W | Updated 10 minutes ago

Clear
Clear
66 °F
Feels Like 66 °F
N
7
Wind Variable Wind from ESE

Today
High -- | Low -- °F
--% Chance of Precip.
Yesterday
High -- | Low -- °F
Precip. -- in
7:22 AM 5:33 PM
Waxing Crescent, 28% visible
Pressure 30.24 in
Visibility 10.0 miles
Clouds Few 3500 ft
Few 20000 ft
Few 25000 ft
Dew Point 51 °F
Humidity 59%
Rainfall 0.00 in
Snow Depth Not available.
UV 4 out of 12
Pollen 2.70 out of 12
Air Quality Not available.
Flu Activity Not available.
METAR KJAX 261856Z 12006KT 10SM FEW035 FEW200 FEW250 19/11 A3024 RMK AO2 SLP240 T01890106

More Conditions Fewer Conditions

Pressure 30.24 in
Visibility 10.0 miles
Clouds Few 3500 ft
Few 20000 ft
Few 25000 ft
Dew Point 51 °F
Humidity 59%
Rainfall 0.00 in
Snow Depth Not available.
UV 4 out of 12
Pollen 2.70 out of 12
Air Quality Not available.
Flu Activity Not available.
METAR KJAX 261856Z 12006KT 10SM FEW035 FEW200 FEW250 19/11 A3024 RMK AO2 SLP240 T01890106

More Conditions Fewer Conditions

10-Day Weather Forecast

Almanac

Astronomy

Dec. 26, 2014 Rise Set
Actual Time
Civil Twilight
Nautical Twilight
Astronomical Twilight
Moon
Length of Visible Light
Length of Day
Tomorrow will be .
, % of the Moon is Illuminated

Today's Extremes

State Highs State Lows

Community

WunderPhotos

Upload Photos

1,780,668 photos uploaded!

WunderBlogs® & News

Nearby

Air Quality

  Air Quality AQ Index Pollutant
Not available.

Snow Depth

Station Depth Elevation

Earthquake Activity

City Distance Mag. Time & Date
Minimum magnitude displayed is 2.5.

Coastal Water Temperatures

Place Temperature

Nearby Weather Stations